Time;durP1;ratioP1;P1;durP2;ratioP2;P2;SDS_P1;SDS_P2;PMS_P1;PMS_P2;Temp;Humidity;BMP_temperature;BMP_pressure;BME280_temperature;BME280_humidity;BME280_pressure;Samples;Min_cycle;Max_cycle;Signal;HPM_P1;HPM_P2
2021/12/04 00:02:11;;;;;;;3.10;2.90;;;;;;;-0.54;77.57;98418.78;6335275;22;20018;-72
2021/12/04 00:04:40;;;;;;;2.40;2.30;;;;;;;-0.56;77.54;98412.03;6334673;22;20018;-73
2021/12/04 00:07:07;;;;;;;3.05;2.85;;;;;;;-0.59;76.73;98414.69;6334763;22;20019;-72
2021/12/04 00:09:34;;;;;;;3.50;2.70;;;;;;;-0.58;74.63;98412.06;6334867;22;20361;-72
2021/12/04 00:12:02;;;;;;;2.70;2.50;;;;;;;-0.64;75.83;98426.81;6306341;22;20105;-72
2021/12/04 00:14:29;;;;;;;3.30;3.03;;;;;;;-0.80;77.04;98423.91;6334435;22;20015;-72
2021/12/04 00:16:55;;;;;;;2.60;2.50;;;;;;;-0.94;78.10;98417.53;6306619;22;20015;-72
2021/12/04 00:19:21;;;;;;;5.22;2.83;;;;;;;-1.02;78.86;98416.97;6307059;22;20015;-72
2021/12/04 00:21:47;;;;;;;3.28;2.88;;;;;;;-1.08;79.27;98426.50;6281104;22;20068;-72
2021/12/04 00:24:13;;;;;;;2.88;2.58;;;;;;;-1.13;80.79;98417.31;6306690;22;20019;-74
2021/12/04 00:26:39;;;;;;;3.20;2.88;;;;;;;-1.05;79.37;98421.28;6333503;22;20042;-74
2021/12/04 00:29:05;;;;;;;3.40;3.20;;;;;;;-1.08;79.75;98425.69;6334275;22;20436;-73
2021/12/04 00:31:32;;;;;;;3.17;2.88;;;;;;;-0.99;78.57;98420.28;6334143;22;20094;-74
2021/12/04 00:33:58;;;;;;;10.05;3.45;;;;;;;-1.10;79.58;98424.88;6306588;22;20014;-75
2021/12/04 00:36:50;;;;;;;3.72;3.50;;;;;;;-1.10;79.88;98410.38;6306825;22;20014;-73
2021/12/04 00:50:32;;;;;;;5.07;4.57;;;;;;;-1.29;81.44;98431.47;6338496;22;20019;-74
2021/12/04 00:52:58;;;;;;;4.45;4.00;;;;;;;-1.42;82.46;98425.88;6334770;22;20080;-74
2021/12/04 00:55:24;;;;;;;5.07;4.32;;;;;;;-1.45;82.21;98431.09;6314121;22;20015;-74
2021/12/04 00:57:50;;;;;;;4.75;4.35;;;;;;;-1.51;82.68;98428.72;6290027;22;20074;-74
2021/12/04 01:00:16;;;;;;;3.10;2.90;;;;;;;-1.60;83.13;98436.63;6355004;22;20019;-73
2021/12/04 01:02:43;;;;;;;3.67;3.45;;;;;;;-1.55;82.99;98423.72;6356027;22;20014;-74
2021/12/04 01:05:09;;;;;;;6.75;3.85;;;;;;;-1.48;82.08;98431.19;6350560;22;20015;-74
2021/12/04 01:07:35;;;;;;;4.28;3.97;;;;;;;-1.63;82.41;98423.94;6308003;22;20027;-73
2021/12/04 01:10:04;;;;;;;2.90;2.63;;;;;;;-1.68;83.34;98428.38;6307200;22;20022;-73
2021/12/04 01:12:30;;;;;;;2.35;2.25;;;;;;;-1.68;82.73;98423.25;6334727;22;20045;-74
2021/12/04 01:14:56;;;;;;;3.00;2.80;;;;;;;-1.68;83.34;98423.25;6281653;22;20019;-75
2021/12/04 01:17:22;;;;;;;2.85;2.65;;;;;;;-1.76;83.57;98422.63;6334536;22;20025;-74
2021/12/04 01:19:48;;;;;;;2.63;2.53;;;;;;;-1.74;83.70;98428.53;6334763;22;20019;-76
2021/12/04 01:22:14;;;;;;;2.42;2.28;;;;;;;-1.67;83.35;98430.84;6334038;22;20059;-74
2021/12/04 01:24:40;;;;;;;3.28;2.88;;;;;;;-1.75;84.15;98421.75;6334663;22;20052;-72
2021/12/04 01:27:08;;;;;;;3.25;3.05;;;;;;;-1.71;83.57;98428.44;6280677;22;20023;-74
2021/12/04 01:29:33;;;;;;;4.18;3.88;;;;;;;-1.76;83.99;98431.13;6333923;22;20029;-75
2021/12/04 01:32:00;;;;;;;3.92;3.63;;;;;;;-1.80;84.06;98424.41;6305868;22;20018;-74
2021/12/04 01:34:26;;;;;;;3.63;3.35;;;;;;;-1.87;84.14;98422.94;6334712;22;20045;-75
2021/12/04 01:36:52;;;;;;;3.53;3.30;;;;;;;-1.88;84.48;98423.81;6334260;22;20023;-75
2021/12/04 01:39:19;;;;;;;3.45;3.25;;;;;;;-1.84;84.08;98432.25;6335558;22;20046;-74
2021/12/04 01:41:45;;;;;;;3.28;3.08;;;;;;;-1.90;84.04;98429.84;6308640;22;20025;-74
2021/12/04 01:44:14;;;;;;;3.00;2.90;;;;;;;-1.99;84.96;98433.50;6335814;22;20027;-74
2021/12/04 01:46:41;;;;;;;3.00;2.75;;;;;;;-1.99;84.51;98435.22;6306528;22;20114;-75
2021/12/04 01:49:08;;;;;;;3.72;3.42;;;;;;;-2.07;85.14;98429.47;6334545;22;20023;-75
2021/12/04 01:51:34;;;;;;;4.47;4.13;;;;;;;-2.17;85.39;98427.19;6306937;22;20480;-74
2021/12/04 01:54:00;;;;;;;3.97;3.13;;;;;;;-2.13;85.23;98441.53;6306179;22;20010;-74
2021/12/04 01:56:29;;;;;;;3.60;3.33;;;;;;;-2.19;85.10;98434.03;6333572;22;20076;-74
2021/12/04 01:58:55;;;;;;;3.35;3.15;;;;;;;-2.19;84.94;98438.28;6332027;22;20025;-75
2021/12/04 02:01:21;;;;;;;3.35;3.08;;;;;;;-2.13;84.89;98441.53;6333723;22;20445;-74
2021/12/04 02:03:48;;;;;;;3.22;3.03;;;;;;;-2.15;84.92;98443.31;6333205;22;20499;-74
2021/12/04 02:06:14;;;;;;;2.20;2.10;;;;;;;-2.14;84.51;98447.53;6305879;22;20346;-73
2021/12/04 02:08:42;;;;;;;4.07;3.47;;;;;;;-2.22;84.96;98440.94;6305845;22;20029;-72
2021/12/04 02:11:08;;;;;;;5.43;4.03;;;;;;;-2.17;84.72;98439.97;6305448;22;20089;-74
2021/12/04 02:13:34;;;;;;;3.35;3.10;;;;;;;-2.26;85.05;98435.06;6333342;22;20018;-74
2021/12/04 02:16:03;;;;;;;3.20;3.00;;;;;;;-2.23;84.36;98432.47;6305648;22;20019;-75
2021/12/04 02:18:29;;;;;;;3.83;3.47;;;;;;;-2.31;85.31;98436.09;6333471;22;20469;-74
2021/12/04 02:20:55;;;;;;;3.20;3.00;;;;;;;-2.29;84.97;98432.59;6333826;22;20064;-78
2021/12/04 02:23:21;;;;;;;4.20;2.78;;;;;;;-2.34;84.84;98437.00;6333590;22;20023;-74
2021/12/04 02:25:47;;;;;;;3.92;3.53;;;;;;;-2.29;85.02;98442.81;6333381;22;20427;-74
2021/12/04 02:28:13;;;;;;;3.35;3.10;;;;;;;-2.41;85.12;98443.16;6306133;22;20541;-75
2021/12/04 02:30:43;;;;;;;2.95;2.80;;;;;;;-2.44;85.27;98437.28;6334002;22;20473;-74
2021/12/04 02:33:12;;;;;;;3.15;2.95;;;;;;;-2.41;85.49;98449.97;6333277;22;20011;-74
2021/12/04 02:35:46;;;;;;;3.75;3.47;;;;;;;-2.42;85.41;98453.41;6281043;22;20035;-75
2021/12/04 02:38:13;;;;;;;3.75;3.55;;;;;;;-2.40;85.04;98462.72;6332029;22;20022;-75
2021/12/04 02:40:42;;;;;;;3.78;3.58;;;;;;;-2.45;85.63;98454.31;6333181;22;20014;-76
2021/12/04 02:43:10;;;;;;;3.95;3.65;;;;;;;-2.47;86.04;98460.34;6305563;22;20015;-73
2021/12/04 02:45:36;;;;;;;3.40;3.20;;;;;;;-2.53;86.00;98456.25;6280300;22;20018;-77
2021/12/04 02:48:02;;;;;;;3.25;2.85;;;;;;;-2.54;85.98;98472.44;6305699;22;20018;-76
2021/12/04 02:50:28;;;;;;;8.25;4.85;;;;;;;-2.55;85.91;98478.41;6333299;22;20025;-75
2021/12/04 02:52:55;;;;;;;3.63;3.42;;;;;;;-2.54;86.27;98481.81;6280284;22;20014;-78
2021/12/04 02:55:21;;;;;;;3.40;3.10;;;;;;;-2.54;85.73;98469.88;6305642;22;20022;-77
2021/12/04 02:57:47;;;;;;;3.60;3.30;;;;;;;-2.47;85.38;98479.06;6334546;22;20019;-78
2021/12/04 03:00:16;;;;;;;3.15;2.95;;;;;;;-2.51;85.82;98489.38;6281925;22;20019;-77
2021/12/04 03:02:42;;;;;;;4.18;3.88;;;;;;;-2.55;85.51;98475.84;6335067;22;20014;-78
2021/12/04 03:05:09;;;;;;;4.78;4.32;;;;;;;-2.57;85.65;98475.06;6311458;22;20019;-77
2021/12/04 03:07:35;;;;;;;3.63;3.33;;;;;;;-2.43;84.75;98478.13;6313470;22;20097;-77
2021/12/04 03:10:02;;;;;;;3.05;2.75;;;;;;;-2.53;85.25;98468.16;6336376;22;20457;-77
2021/12/04 03:12:29;;;;;;;3.75;3.55;;;;;;;-2.44;85.07;98486.66;6335172;22;20015;-76
2021/12/04 03:14:55;;;;;;;4.20;3.45;;;;;;;-2.51;85.50;98490.22;6231055;22;20105;-76
2021/12/04 03:17:22;;;;;;;4.45;3.92;;;;;;;-2.56;85.85;98497.19;6308422;22;20015;-75
2021/12/04 03:19:50;;;;;;;3.40;3.20;;;;;;;-2.49;85.75;98487.66;6335215;22;20067;-76
2021/12/04 03:22:17;;;;;;;3.53;3.33;;;;;;;-2.60;86.13;98487.91;6307567;22;20057;-77
2021/12/04 03:24:43;;;;;;;4.35;4.15;;;;;;;-2.54;85.63;98500.53;6334991;22;20018;-77
2021/12/04 03:27:09;;;;;;;3.88;3.67;;;;;;;-2.46;85.43;98490.97;6337646;22;20019;-78
2021/12/04 03:29:42;;;;;;;3.67;3.38;;;;;;;-2.55;85.62;98503.94;6281599;22;20030;-77
2021/12/04 03:42:59;;;;;;;3.20;2.92;;;;;;;-2.68;85.24;98474.47;6282505;22;20015;-75
2021/12/04 03:45:25;;;;;;;4.57;4.28;;;;;;;-2.56;84.63;98498.88;6334783;22;20083;-75
2021/12/04 03:47:55;;;;;;;3.83;3.53;;;;;;;-2.51;84.97;98500.44;6334226;22;20422;-76
2021/12/04 03:50:21;;;;;;;4.15;3.78;;;;;;;-2.43;84.38;98508.78;6334705;22;20365;-75
2021/12/04 03:52:47;;;;;;;2.92;2.72;;;;;;;-2.43;84.34;98508.78;6334476;22;20023;-75
2021/12/04 03:55:13;;;;;;;3.10;2.90;;;;;;;-2.49;84.83;98518.31;6306963;22;20105;-76
2021/12/04 03:57:44;;;;;;;4.07;3.78;;;;;;;-2.52;84.63;98503.88;6307069;22;20466;-75
2021/12/04 04:00:18;;;;;;;3.58;3.38;;;;;;;-2.44;84.74;98522.41;6334365;22;20022;-75
2021/12/04 04:02:46;;;;;;;3.88;3.38;;;;;;;-2.44;84.38;98514.75;6335025;22;20403;-75
2021/12/04 04:05:12;;;;;;;4.97;4.57;;;;;;;-2.41;84.99;98524.88;6334166;22;20011;-75
2021/12/04 04:07:38;;;;;;;3.42;3.22;;;;;;;-2.37;84.49;98510.31;6334692;22;20019;-74
2021/12/04 04:10:05;;;;;;;3.70;3.40;;;;;;;-2.44;84.57;98499.44;6337425;22;20014;-74
2021/12/04 04:12:31;;;;;;;4.32;3.92;;;;;;;-2.43;84.77;98498.56;6342090;22;20014;-75
2021/12/04 04:14:57;;;;;;;3.60;3.40;;;;;;;-2.36;84.64;98524.78;6339050;22;20060;-75
2021/12/04 04:17:23;;;;;;;3.63;3.33;;;;;;;-2.38;85.02;98514.59;6334436;22;20026;-77
2021/12/04 04:19:49;;;;;;;2.45;2.35;;;;;;;-2.30;83.75;98522.09;6307459;22;20088;-77
2021/12/04 04:22:15;;;;;;;3.75;3.45;;;;;;;-2.31;84.65;98512.72;6307015;22;20533;-76
2021/12/04 04:24:41;;;;;;;4.20;3.80;;;;;;;-2.27;83.62;98504.97;6307191;22;20050;-77
2021/12/04 04:27:07;;;;;;;3.75;3.55;;;;;;;-2.30;84.16;98519.53;6333721;22;20033;-77
2021/12/04 04:29:33;;;;;;;3.80;3.40;;;;;;;-2.27;83.95;98533.06;6306746;22;20046;-77
2021/12/04 04:32:00;;;;;;;5.38;4.97;;;;;;;-2.28;84.48;98517.75;6334139;22;20029;-76
2021/12/04 04:34:30;;;;;;;4.28;3.97;;;;;;;-2.27;84.52;98522.84;6334149;22;20011;-77
2021/12/04 05:14:24;;;;;;;2.58;2.38;;;;;;;-1.95;82.81;98564.63;6306974;22;20006;-75
2021/12/04 05:16:53;;;;;;;3.78;3.47;;;;;;;-1.96;83.10;98573.19;6306474;22;20030;-75
2021/12/04 05:22:04;;;;;;;3.42;3.17;;;;;;;-1.95;82.74;98572.28;6333976;22;20040;-77
2021/12/04 05:24:30;;;;;;;4.43;4.13;;;;;;;-1.95;82.74;98577.41;6333571;22;20097;-76
2021/12/04 05:26:56;;;;;;;4.00;3.70;;;;;;;-1.99;83.27;98583.47;6301128;22;20409;-76
2021/12/04 05:29:22;;;;;;;3.55;3.35;;;;;;;-1.94;82.83;98527.97;6301254;22;20023;-76
2021/12/04 05:31:48;;;;;;;3.10;2.90;;;;;;;-1.93;82.23;98571.38;6301805;22;20042;-76
2021/12/04 05:34:14;;;;;;;3.33;3.13;;;;;;;-1.91;82.19;98574.75;6299930;22;20113;-76
2021/12/04 05:36:41;;;;;;;4.53;4.22;;;;;;;-1.89;82.00;98574.69;6302528;22;20015;-80
2021/12/04 05:39:08;;;;;;;2.88;2.78;;;;;;;-1.91;82.60;98579.84;6300582;22;20462;-78
2021/12/04 05:41:34;;;;;;;3.33;2.88;;;;;;;-1.92;82.67;98579.88;6299293;22;20015;-77
2021/12/04 05:44:05;;;;;;;2.78;2.58;;;;;;;-1.94;83.42;98582.50;6300018;22;20454;-77
2021/12/04 05:46:43;;;;;;;3.33;3.08;;;;;;;-1.90;82.42;98578.16;6226847;22;20017;-78
2021/12/04 05:49:21;;;;;;;3.50;3.22;;;;;;;-1.94;83.01;98579.09;6301439;22;20062;-78
2021/12/04 05:56:51;;;;;;;3.38;3.17;;;;;;;-1.99;85.07;98586.88;6302192;22;20450;-77
2021/12/04 05:59:17;;;;;;;3.60;3.30;;;;;;;-1.92;83.09;98602.91;6274509;22;20027;-77
2021/12/04 06:01:43;;;;;;;4.07;3.70;;;;;;;-1.89;82.92;98602.81;6300681;22;20023;-77
2021/12/04 06:04:09;;;;;;;3.78;3.40;;;;;;;-1.91;83.10;98589.25;6300416;22;20073;-77
2021/12/04 06:06:35;;;;;;;3.95;3.65;;;;;;;-1.82;81.59;98596.66;6327093;22;20358;-77
2021/12/04 06:09:01;;;;;;;7.35;5.10;;;;;;;-1.83;82.55;98607.81;6300110;22;20023;-76
2021/12/04 06:11:29;;;;;;;5.47;3.55;;;;;;;-1.86;83.34;98607.84;6302202;22;20402;-76
2021/12/04 06:13:56;;;;;;;4.32;4.03;;;;;;;-1.85;82.96;98610.38;6299827;22;20023;-76
2021/12/04 06:16:22;;;;;;;3.53;3.25;;;;;;;-1.88;83.69;98614.72;6300326;22;20019;-77
2021/12/04 06:18:51;;;;;;;4.90;4.40;;;;;;;-1.89;83.21;98613.03;6302120;22;20422;-76
2021/12/04 06:24:35;;;;;;;3.55;3.25;;;;;;;-1.88;83.16;98619.84;6301175;22;20089;-76
2021/12/04 06:27:01;;;;;;;3.78;3.47;;;;;;;-1.89;82.97;98634.34;6300049;22;20050;-76
2021/12/04 06:29:27;;;;;;;4.35;4.05;;;;;;;-1.87;83.43;98640.28;6274247;22;20458;-75
2021/12/04 06:31:53;;;;;;;4.65;3.55;;;;;;;-1.88;83.68;98624.97;6301414;22;20019;-76
2021/12/04 06:34:20;;;;;;;3.53;3.22;;;;;;;-1.84;83.47;98639.34;6303974;22;20015;-76
2021/12/04 06:36:46;;;;;;;4.15;3.72;;;;;;;-1.84;82.81;98636.78;6304205;22;20019;-75
2021/12/04 06:39:12;;;;;;;3.97;3.65;;;;;;;-1.82;83.13;98640.16;6301884;22;20015;-78
2021/12/04 06:41:38;;;;;;;4.53;4.20;;;;;;;-1.88;83.60;98636.03;6302470;22;20026;-77
2021/12/04 06:44:04;;;;;;;4.07;3.78;;;;;;;-1.86;84.23;98641.94;6303766;22;20054;-79
2021/12/04 06:46:30;;;;;;;3.03;2.85;;;;;;;-1.93;84.82;98639.59;6303006;22;20026;-78
2021/12/04 06:49:08;;;;;;;3.10;2.97;;;;;;;-1.88;84.52;98650.53;6304234;22;20026;-78
2021/12/04 06:51:38;;;;;;;3.08;2.88;;;;;;;-1.89;88.93;98651.41;6304514;22;20075;-77
2021/12/04 06:54:28;;;;;;;4.43;4.13;;;;;;;-1.92;85.89;98647.19;6304092;22;20023;-76
2021/12/04 06:56:50;;;;;;;4.25;3.95;;;;;;;-1.89;85.78;98659.06;6303789;22;20025;-76
2021/12/04 06:59:22;;;;;;;3.50;3.30;;;;;;;-1.93;86.41;98642.16;6276647;22;20026;-79
2021/12/04 07:01:48;;;;;;;3.95;3.65;;;;;;;-1.88;86.54;98663.31;6277385;22;20046;-75
2021/12/04 07:04:17;;;;;;;4.50;4.20;;;;;;;-1.89;86.36;98648.84;6304500;22;20038;-78
2021/12/04 07:06:45;;;;;;;4.00;3.67;;;;;;;-1.85;87.50;98653.00;6304176;22;20102;-76
2021/12/04 07:09:12;;;;;;;3.33;3.10;;;;;;;-1.81;86.84;98658.03;6301970;22;20049;-76
2021/12/04 07:11:38;;;;;;;3.67;3.38;;;;;;;-1.83;86.28;98669.16;6304218;22;20073;-74
2021/12/04 07:14:13;;;;;;;5.32;4.82;;;;;;;-1.81;86.35;98685.31;6276985;22;20085;-75
2021/12/04 07:16:40;;;;;;;5.47;3.95;;;;;;;-1.82;86.53;98686.16;6278076;22;20030;-77
2021/12/04 07:19:06;;;;;;;5.47;4.97;;;;;;;-1.77;86.35;98689.47;6304329;22;20027;-75
2021/12/04 07:21:32;;;;;;;6.35;4.28;;;;;;;-1.72;86.59;98697.88;6302524;22;20043;-75
2021/12/04 07:24:02;;;;;;;5.80;4.43;;;;;;;-1.78;85.96;98693.75;6305414;22;20297;-75
2021/12/04 07:26:29;;;;;;;11.07;4.97;;;;;;;-1.80;86.20;98685.25;6310348;22;20399;-75
2021/12/04 07:28:55;;;;;;;4.63;4.25;;;;;;;-1.82;86.19;98702.38;6314456;22;20019;-75
2021/12/04 07:31:21;;;;;;;4.50;4.10;;;;;;;-1.81;86.35;98705.75;6316337;22;20093;-75
2021/12/04 07:33:50;;;;;;;4.15;3.85;;;;;;;-1.89;87.26;98711.06;6289796;22;20066;-75
2021/12/04 07:36:16;;;;;;;4.82;4.43;;;;;;;-1.87;87.76;98718.69;6281343;22;20019;-75
2021/12/04 07:38:42;;;;;;;4.28;3.88;;;;;;;-1.75;86.45;98720.97;6279508;22;20021;-75
2021/12/04 07:41:10;;;;;;;4.47;3.70;;;;;;;-1.67;84.94;98716.50;6305334;22;20476;-76
2021/12/04 07:43:36;;;;;;;3.25;3.05;;;;;;;-1.62;85.67;98735.13;6274125;22;20019;-76
2021/12/04 07:46:02;;;;;;;4.65;4.25;;;;;;;-1.64;85.28;98736.91;6223905;22;20019;-76
2021/12/04 07:48:28;;;;;;;3.60;3.40;;;;;;;-1.63;85.48;98747.06;6247974;22;20030;-75
2021/12/04 07:50:55;;;;;;;6.72;3.47;;;;;;;-1.61;84.04;98722.31;6223526;22;20412;-76
2021/12/04 07:53:21;;;;;;;3.45;3.25;;;;;;;-1.50;83.99;98762.97;6222675;22;20078;-76
2021/12/04 07:55:47;;;;;;;3.53;3.22;;;;;;;-1.47;82.95;98742.41;6303292;22;20011;-75
2021/12/04 07:58:14;;;;;;;4.10;3.80;;;;;;;-1.38;80.04;98743.94;6300220;22;20745;-75
2021/12/04 08:00:40;;;;;;;3.25;2.95;;;;;;;-1.26;79.57;98754.69;6250552;22;20023;-76
2021/12/04 08:03:06;;;;;;;3.88;3.00;;;;;;;-1.35;79.83;98748.97;6303571;22;20015;-77
2021/12/04 08:06:06;;;;;;;3.28;2.88;;;;;;;-1.24;78.21;98746.97;6300409;22;20015;-77
2021/12/04 08:08:34;;;;;;;2.83;2.67;;;;;;;-1.33;78.03;98771.09;6238362;22;20059;-76
2021/12/04 08:11:00;;;;;;;2.85;2.65;;;;;;;-1.33;77.26;98754.88;6277029;22;20046;-78
2021/12/04 08:13:28;;;;;;;3.60;2.60;;;;;;;-1.19;76.08;98766.47;6303408;22;20015;-77
2021/12/04 08:15:57;;;;;;;2.78;2.58;;;;;;;-1.33;77.40;98747.19;6300043;22;20011;-76
2021/12/04 08:18:24;;;;;;;2.90;2.70;;;;;;;-1.27;76.06;98757.28;6268486;22;20052;-77
2021/12/04 08:20:50;;;;;;;2.75;2.65;;;;;;;-1.40;75.63;98758.47;6195107;22;20019;-77
2021/12/04 08:23:19;;;;;;;2.50;2.40;;;;;;;-1.29;76.26;98821.31;6275127;22;20362;-74
2021/12/04 08:25:46;;;;;;;5.38;2.47;;;;;;;-1.60;71.93;98805.84;6302453;22;20019;-74
2021/12/04 08:28:28;;;;;;;2.50;2.40;;;;;;;-1.84;67.87;98795.34;6269596;22;20091;-77
2021/12/04 08:30:56;;;;;;;2.25;1.73;;;;;;;-1.94;67.53;98819.44;6260092;22;20022;-80
2021/12/04 08:33:21;;;;;;;1.60;1.60;;;;;;;-2.04;67.77;98830.72;6283187;22;20019;-76
2021/12/04 08:35:47;;;;;;;2.13;2.03;;;;;;;-2.03;68.00;98829.84;6303464;22;20019;-77
2021/12/04 08:38:14;;;;;;;1.90;1.80;;;;;;;-1.99;67.50;98811.84;6249847;22;20077;-76
2021/12/04 08:40:48;;;;;;;1.80;1.80;;;;;;;-2.08;67.04;98790.75;6276497;22;20019;-79
2021/12/04 08:43:20;;;;;;;2.27;2.17;;;;;;;-2.14;67.00;98813.03;6300659;22;20019;-77
2021/12/04 08:45:47;;;;;;;2.03;1.92;;;;;;;-2.06;65.43;98827.38;6295950;22;20370;-78
2021/12/04 08:48:13;;;;;;;2.05;1.95;;;;;;;-2.17;66.83;98838.66;6297395;22;20080;-79
2021/12/04 08:50:40;;;;;;;2.35;2.25;;;;;;;-2.22;67.86;98862.59;6299907;22;20053;-77
2021/12/04 08:53:06;;;;;;;2.38;2.28;;;;;;;-2.08;67.71;98846.97;6299340;22;20497;-79
2021/12/04 08:55:32;;;;;;;2.15;2.05;;;;;;;-2.27;68.03;98838.84;6247658;22;20042;-75
2021/12/04 08:57:59;;;;;;;2.28;2.17;;;;;;;-2.19;68.11;98845.47;6298653;22;20023;-75
2021/12/04 09:00:30;;;;;;;2.17;2.08;;;;;;;-2.16;68.41;98860.75;6299866;22;20047;-76
2021/12/04 09:02:56;;;;;;;2.27;2.17;;;;;;;-2.11;67.90;98856.41;6246597;22;20050;-76
2021/12/04 09:05:23;;;;;;;2.58;2.47;;;;;;;-2.17;67.25;98858.25;6274276;22;20019;-77
2021/12/04 09:07:50;;;;;;;1.95;1.85;;;;;;;-2.17;67.76;98878.69;6301780;22;20509;-76
2021/12/04 09:10:16;;;;;;;1.98;1.88;;;;;;;-2.26;67.45;98864.34;6273930;22;20042;-76
2021/12/04 09:12:43;;;;;;;2.15;2.05;;;;;;;-2.31;67.64;98832.97;6300709;22;20026;-74
2021/12/04 09:15:10;;;;;;;1.90;1.80;;;;;;;-2.24;67.33;98872.00;6299573;22;20489;-75
2021/12/04 09:17:36;;;;;;;2.40;2.30;;;;;;;-2.17;67.19;98869.31;6300260;22;20015;-74
2021/12/04 09:20:04;;;;;;;2.20;2.10;;;;;;;-2.13;67.21;98870.09;6301702;22;20070;-75
2021/12/04 09:22:33;;;;;;;2.00;1.90;;;;;;;-2.01;66.84;98881.78;6299488;22;20102;-75
2021/12/04 09:25:01;;;;;;;2.35;2.20;;;;;;;-1.97;66.12;98842.50;6299265;22;20015;-75
2021/12/04 09:35:05;;;;;;;1.75;1.65;;;;;;;-1.87;64.59;98859.34;6267851;22;20019;-74
2021/12/04 10:05:04;;;;;;;2.13;2.03;;;;;;;-1.92;64.87;98912.25;6269409;22;20019;-74
2021/12/04 10:21:15;;;;;;;1.77;1.67;;;;;;;-1.90;65.38;98928.44;6193131;22;20016;-74
2021/12/04 10:34:58;;;;;;;2.08;1.98;;;;;;;-2.06;67.39;98943.22;6297095;22;20023;-75
2021/12/04 10:37:26;;;;;;;1.88;1.77;;;;;;;-2.12;67.22;98954.41;6298650;22;20016;-75
2021/12/04 10:39:55;;;;;;;2.70;2.40;;;;;;;-2.15;66.81;98964.69;6273085;22;20042;-76
2021/12/04 10:42:25;;;;;;;2.38;2.28;;;;;;;-2.20;66.81;98961.38;6297857;22;20050;-75
2021/12/04 10:44:53;;;;;;;2.27;2.17;;;;;;;-2.27;67.01;98964.91;6297320;22;20023;-77
2021/12/04 10:47:24;;;;;;;1.90;1.90;;;;;;;-2.21;67.09;98981.84;6298038;22;20019;-78
2021/12/04 10:58:33;;;;;;;1.80;1.70;;;;;;;-2.37;69.10;98977.88;6274360;22;20022;-75
2021/12/04 11:03:56;;;;;;;1.80;1.70;;;;;;;-2.39;69.70;98987.28;6276557;22;20383;-77
2021/12/04 11:27:34;;;;;;;2.10;2.00;;;;;;;-2.27;70.84;99002.41;6284330;22;20026;-77
2021/12/04 11:38:31;;;;;;;2.55;2.45;;;;;;;-2.44;70.66;99007.78;6301328;22;20015;-76
2021/12/04 11:44:00;;;;;;;2.45;2.35;;;;;;;-2.51;71.30;99006.19;6253308;22;20046;-77
2021/12/04 11:49:22;;;;;;;2.72;2.53;;;;;;;-2.51;70.92;99024.09;6250452;22;20102;-75
2021/12/04 11:52:00;;;;;;;2.38;2.30;;;;;;;-2.54;70.55;99016.47;6299909;22;20047;-75
2021/12/04 11:54:42;;;;;;;2.40;2.30;;;;;;;-2.52;71.00;99014.72;6302361;22;20073;-75
2021/12/04 11:57:11;;;;;;;2.17;2.08;;;;;;;-2.53;71.41;99025.84;6274128;22;20482;-75
2021/12/04 11:59:38;;;;;;;2.90;2.80;;;;;;;-2.56;72.37;99023.31;6300158;22;20015;-74
2021/12/04 12:02:06;;;;;;;2.20;2.00;;;;;;;-2.58;72.47;99030.16;6302782;22;20106;-75
2021/12/04 12:04:37;;;;;;;2.40;2.30;;;;;;;-2.56;72.00;99023.31;6274419;22;20430;-74
2021/12/04 12:07:19;;;;;;;2.53;2.42;;;;;;;-2.58;71.61;99035.25;6300811;22;20019;-76
2021/12/04 12:09:47;;;;;;;2.65;2.45;;;;;;;-2.59;72.38;99032.75;6302955;22;20019;-75
2021/12/04 12:12:20;;;;;;;2.45;2.35;;;;;;;-2.60;72.32;99036.16;6303093;22;20019;-76
2021/12/04 12:15:04;;;;;;;2.45;2.35;;;;;;;-2.73;71.64;99031.25;6253825;22;20015;-75
2021/12/04 12:17:33;;;;;;;2.05;1.95;;;;;;;-2.64;71.46;99031.09;6275348;22;20394;-75
2021/12/04 12:19:59;;;;;;;2.97;2.78;;;;;;;-2.66;72.36;99047.31;6275437;22;20037;-75
2021/12/04 12:22:46;;;;;;;2.53;2.42;;;;;;;-2.64;72.44;99055.78;6302501;22;20015;-75
2021/12/04 12:31:42;;;;;;;4.20;2.88;;;;;;;-2.68;72.61;99054.13;6301012;22;20020;-75
2021/12/04 12:33:35;;;;;;;3.78;2.83;;;;;;;-2.72;72.81;99044.88;6257839;22;20390;-74
2021/12/04 12:36:11;;;;;;;2.33;2.22;;;;;;;-2.68;71.68;99069.47;6302242;22;20042;-73
2021/12/04 12:38:51;;;;;;;3.05;2.85;;;;;;;-2.72;72.07;99067.84;6302843;22;20491;-76
2021/12/04 12:41:24;;;;;;;2.50;2.40;;;;;;;-2.74;72.77;99080.63;6274773;22;20047;-74
2021/12/04 12:44:19;;;;;;;3.00;2.80;;;;;;;-2.76;72.64;99076.41;6274964;22;20098;-73
2021/12/04 12:46:45;;;;;;;2.38;2.17;;;;;;;-2.76;72.51;99077.25;6302359;22;20026;-74
2021/12/04 12:49:43;;;;;;;2.20;2.10;;;;;;;-2.78;72.82;99083.25;6301608;22;20018;-74
2021/12/04 12:52:28;;;;;;;5.53;3.00;;;;;;;-2.81;73.44;99093.47;6275094;22;20015;-74
2021/12/04 12:55:03;;;;;;;2.42;2.33;;;;;;;-2.82;74.07;99086.72;6249292;22;20667;-74
2021/12/04 12:57:37;;;;;;;2.28;2.17;;;;;;;-2.82;73.37;99099.47;6284797;22;20026;-74
2021/12/04 13:14:17;;;;;;;3.10;2.90;;;;;;;-2.90;72.72;99124.25;6279189;22;20019;-74
2021/12/04 13:16:46;;;;;;;3.22;3.00;;;;;;;-2.93;72.49;99126.84;6300652;22;20015;-74
2021/12/04 13:19:14;;;;;;;1.70;1.60;;;;;;;-2.91;72.61;99128.50;6274820;22;20109;-74
2021/12/04 13:21:42;;;;;;;2.70;2.53;;;;;;;-2.94;72.79;99132.81;6250192;22;20370;-74
2021/12/04 13:24:10;;;;;;;2.28;2.08;;;;;;;-2.97;72.23;99138.81;6302402;22;20098;-76
2021/12/04 13:26:42;;;;;;;6.57;3.35;;;;;;;-3.03;73.03;99143.13;6307993;22;20409;-74
2021/12/04 13:29:08;;;;;;;2.50;2.35;;;;;;;-2.99;72.59;99147.34;6281119;22;20027;-74
2021/12/04 13:31:38;;;;;;;2.10;2.00;;;;;;;-2.94;70.38;99148.13;6275749;22;20030;-75
2021/12/04 13:34:05;;;;;;;2.17;2.08;;;;;;;-2.93;70.65;99157.47;6250887;22;20088;-74
2021/12/04 13:36:32;;;;;;;2.35;2.25;;;;;;;-3.00;70.64;99146.50;6303812;22;20066;-75
2021/12/04 13:39:09;;;;;;;2.45;2.30;;;;;;;-2.97;70.37;99158.38;6301213;22;20027;-74
2021/12/04 13:41:36;;;;;;;2.67;2.47;;;;;;;-3.07;71.99;99165.28;6300829;22;20093;-75
2021/12/04 13:44:03;;;;;;;3.65;3.00;;;;;;;-3.06;72.27;99171.25;6300702;22;20025;-74
2021/12/04 13:46:38;;;;;;;2.85;2.63;;;;;;;-2.99;69.99;99175.44;6274701;22;20019;-74
2021/12/04 13:49:04;;;;;;;2.47;2.28;;;;;;;-3.04;70.30;99174.66;6256388;22;20023;-74
2021/12/04 13:51:31;;;;;;;2.08;1.98;;;;;;;-3.06;70.19;99174.66;6303455;22;20042;-75
2021/12/04 13:53:57;;;;;;;2.75;2.55;;;;;;;-3.06;70.93;99184.00;6301059;22;20465;-74
2021/12/04 13:56:23;;;;;;;2.40;2.22;;;;;;;-3.12;71.52;99179.84;6300639;22;20094;-75
2021/12/04 13:58:54;;;;;;;2.35;2.25;;;;;;;-3.12;70.76;99189.19;6300087;22;20022;-75
2021/12/04 14:01:21;;;;;;;2.25;2.15;;;;;;;-3.11;71.03;99166.22;6302126;22;20019;-76
2021/12/04 14:03:47;;;;;;;2.05;1.95;;;;;;;-3.09;70.91;99199.34;6274697;22;20011;-76
2021/12/04 14:06:15;;;;;;;2.53;2.38;;;;;;;-3.11;71.75;99193.44;6274723;22;20045;-76
2021/12/04 14:08:41;;;;;;;2.28;2.10;;;;;;;-3.07;70.32;99200.19;6300068;22;20019;-76
2021/12/04 14:11:07;;;;;;;2.33;2.20;;;;;;;-3.04;69.85;99210.38;6302223;22;20094;-76
2021/12/04 14:13:33;;;;;;;2.50;2.38;;;;;;;-3.16;71.42;99207.09;6300497;22;20074;-77
2021/12/04 14:15:59;;;;;;;2.33;2.22;;;;;;;-3.13;69.64;99202.81;6301673;22;20018;-76
2021/12/04 14:18:26;;;;;;;2.17;2.08;;;;;;;-3.10;69.96;99197.66;6300613;22;20042;-77
2021/12/04 14:20:54;;;;;;;2.90;2.35;;;;;;;-3.10;68.41;99208.72;6249225;22;20050;-76
2021/12/04 14:23:26;;;;;;;2.25;2.15;;;;;;;-3.09;68.96;99199.34;6251940;22;20560;-77
2021/12/04 14:25:55;;;;;;;3.92;2.33;;;;;;;-3.08;69.50;99213.81;6270279;22;20019;-76
2021/12/04 14:28:25;;;;;;;4.63;2.95;;;;;;;-3.13;68.79;99208.75;6273973;22;20109;-75
2021/12/04 14:30:51;;;;;;;2.33;2.22;;;;;;;-3.22;68.83;99199.50;6275238;22;20019;-76
2021/12/04 14:36:28;;;;;;;2.70;2.60;;;;;;;-3.36;66.84;99183.47;6283862;22;20023;-77
2021/12/04 14:38:54;;;;;;;2.70;2.42;;;;;;;-3.14;67.61;99219.00;6275228;22;20114;-76
2021/12/04 14:41:34;;;;;;;2.97;2.78;;;;;;;-3.16;67.58;99216.44;6301670;22;20061;-76
2021/12/04 14:44:06;;;;;;;2.20;2.08;;;;;;;-3.15;67.00;99215.59;6227451;22;20091;-77
2021/12/04 14:46:32;;;;;;;2.35;2.25;;;;;;;-3.23;68.05;99217.34;6250227;22;20023;-75
2021/12/04 14:49:02;;;;;;;2.80;2.60;;;;;;;-3.24;66.19;99213.97;6250472;22;20023;-76
2021/12/04 14:51:28;;;;;;;2.40;2.30;;;;;;;-3.26;66.09;99233.56;6251176;22;20019;-76
2021/12/04 14:53:56;;;;;;;4.40;1.67;;;;;;;-3.32;66.50;99210.66;6304724;22;20015;-76
2021/12/04 14:56:24;;;;;;;3.55;1.85;;;;;;;-3.26;65.67;99235.25;6227233;22;20023;-75
2021/12/04 14:58:50;;;;;;;2.85;2.65;;;;;;;-3.35;65.60;99228.53;6308280;22;20037;-76
2021/12/04 15:01:17;;;;;;;2.33;2.22;;;;;;;-3.31;65.52;99244.69;6318896;22;20019;-75